Aviation Digital Data Service (ADDS)

Output produced by METARs form (0202 UTC 24 April 2014)
found at http://aviationweather.gov/adds/metars/
 
KBGR 232334Z 2400/2424 32015KT P6SM SCT025 BKN040 OVC090 
     TEMPO 2400/2402 -RA OVC025 
     FM240200 33014KT 5SM -RA BR OVC015 
     FM240900 33014KT P6SM OVC025 
     FM241500 34019G30KT P6SM OVC025 
     FM241800 34022G32KT P6SM SCT025 OVC035